aviador You're here:

PAPH Decoded Metar

PORT HEIDEN in AK, USA
Report Time2017-12-11 08:56:00
UTC Time2017-12-11 09:09:58
Flight Rules ifr IFR
Wind020° at 11 kt
W.Decomp.*RWY 05: 7.6 kt HW 7.9 kt LCW
RWY 31: 6.5 kt HW 8.9 kt RCW
W.Rank020° ranks 18
Current wind is above 020° avg. (9.0)
Visibility9999 m
Phenomena:Light Rain
Clouds:Broken 009 Hf
Overcast 018 Hf
Expected CloudBase > 400 ft AGL from Temp-Dew spread
Ceiling900 ft
Temp02°C (ISA -13)
Dew Point01°C (93% RH)
AAT-3.8°C
QNH976 hPa
Density Alt-92 ft
Elevation95 ft
Report Wrong Elevation
Raw Report
PAPH 110856Z AUTO 02011KT 10SM -RA BKN009 OVC018 02/01 A2881 RMK
AO2 CIG 007V012 SLP760 P0002 60010 T00170006 55005 FZRANO=

Extra information for PAPH:More info

Metar Taf Metar & Taf Last 4 Metars F.Rules Stats Wind Profile Meteogram Temp Stats Airport Information Weather charts Add Link Nearby VenuesMetar ALERT Operation Metar Decoded Social comments

AIRNAV info for PAPH